Negley, Ohio
Current Conditions -  °F | °C
As of 8:47 PM on Wednesday 28 Jan 2015 (Local Time) from KBVI Reporting Station
Clear Clear  
Wind Chill: 19°   Ceiling: Unl
Heat Index: 19°   Visibility: 10mi
Dew Point:   Wind: 3mph
Humidity: 63%   Direction: 140°SE
Pressure: 30.28"   Gusts: NA
Location:  40.79°N, 80.54°W
Report Text: KBVI 290147Z 14003KT 10SM CLR M07/M13 A3028 RMK LAST
Loading
Personal Weather Stations






























Interactive Weather Map New forecast layout! Learn more

10-Day Weather Forecast

Advertisements
Track Severe Weather on mobile